sensor_id;sensor_type;location;lat;lon;timestamp;pressure;altitude;pressure_sealevel;temperature;humidity
52935;BME280;38802;50.198;19.796;2023-03-18T00:01:24;96369.47;;;1.33;55.00
52935;BME280;38802;50.198;19.796;2023-03-18T00:03:52;96365.02;;;1.33;55.12
52935;BME280;38802;50.198;19.796;2023-03-18T00:06:21;96363.16;;;1.28;55.05
52935;BME280;38802;50.198;19.796;2023-03-18T00:08:49;96358.73;;;1.27;55.26
52935;BME280;38802;50.198;19.796;2023-03-18T00:11:19;96356.14;;;1.23;55.24
52935;BME280;38802;50.198;19.796;2023-03-18T00:13:48;96353.12;;;1.22;55.49
52935;BME280;38802;50.198;19.796;2023-03-18T00:16:16;96354.37;;;1.17;55.31
52935;BME280;38802;50.198;19.796;2023-03-18T00:18:44;96355.30;;;1.15;55.53
52935;BME280;38802;50.198;19.796;2023-03-18T00:21:12;96357.73;;;1.15;55.43
52935;BME280;38802;50.198;19.796;2023-03-18T00:23:41;96355.35;;;1.10;55.75
52935;BME280;38802;50.198;19.796;2023-03-18T00:26:10;96348.23;;;1.09;55.69
52935;BME280;38802;50.198;19.796;2023-03-18T00:28:38;96349.26;;;1.05;55.82
52935;BME280;38802;50.198;19.796;2023-03-18T00:31:08;96353.34;;;1.02;55.79
52935;BME280;38802;50.198;19.796;2023-03-18T00:33:38;96352.13;;;0.98;56.12
52935;BME280;38802;50.198;19.796;2023-03-18T00:36:14;96355.67;;;0.95;55.89
52935;BME280;38802;50.198;19.796;2023-03-18T00:38:43;96352.27;;;0.95;55.94
52935;BME280;38802;50.198;19.796;2023-03-18T00:41:12;96350.30;;;0.92;56.01
52935;BME280;38802;50.198;19.796;2023-03-18T00:43:47;96350.41;;;0.90;56.13
52935;BME280;38802;50.198;19.796;2023-03-18T00:46:27;96348.40;;;0.84;56.19
52935;BME280;38802;50.198;19.796;2023-03-18T00:48:58;96349.96;;;0.80;56.03
52935;BME280;38802;50.198;19.796;2023-03-18T00:51:29;96344.48;;;0.76;56.35
52935;BME280;38802;50.198;19.796;2023-03-18T00:54:00;96346.02;;;0.72;56.44
52935;BME280;38802;50.198;19.796;2023-03-18T00:56:30;96335.04;;;0.69;56.47
52935;BME280;38802;50.198;19.796;2023-03-18T00:58:59;96330.96;;;0.64;56.57
52935;BME280;38802;50.198;19.796;2023-03-18T01:01:27;96326.98;;;0.61;56.73
52935;BME280;38802;50.198;19.796;2023-03-18T01:03:57;96327.33;;;0.57;57.01
52935;BME280;38802;50.198;19.796;2023-03-18T01:06:30;96319.27;;;0.57;57.14
52935;BME280;38802;50.198;19.796;2023-03-18T01:09:00;96316.31;;;0.55;56.98
52935;BME280;38802;50.198;19.796;2023-03-18T01:11:28;96314.75;;;0.55;57.10
52935;BME280;38802;50.198;19.796;2023-03-18T01:13:57;96307.23;;;0.55;57.26
52935;BME280;38802;50.198;19.796;2023-03-18T01:16:26;96304.08;;;0.53;57.28
52935;BME280;38802;50.198;19.796;2023-03-18T01:18:55;96299.70;;;0.51;57.55
52935;BME280;38802;50.198;19.796;2023-03-18T01:21:23;96299.44;;;0.50;57.23
52935;BME280;38802;50.198;19.796;2023-03-18T01:23:55;96297.20;;;0.50;57.27
52935;BME280;38802;50.198;19.796;2023-03-18T01:26:23;96297.35;;;0.50;57.28
52935;BME280;38802;50.198;19.796;2023-03-18T01:28:54;96299.11;;;0.49;57.48
52935;BME280;38802;50.198;19.796;2023-03-18T01:31:23;96298.27;;;0.45;57.72
52935;BME280;38802;50.198;19.796;2023-03-18T01:33:53;96296.65;;;0.42;57.58
52935;BME280;38802;50.198;19.796;2023-03-18T01:36:23;96299.14;;;0.40;57.53
52935;BME280;38802;50.198;19.796;2023-03-18T01:39:01;96294.02;;;0.40;57.77
52935;BME280;38802;50.198;19.796;2023-03-18T01:41:30;96296.35;;;0.37;57.57
52935;BME280;38802;50.198;19.796;2023-03-18T01:43:58;96302.35;;;0.36;57.36
52935;BME280;38802;50.198;19.796;2023-03-18T01:46:34;96295.52;;;0.36;57.55
52935;BME280;38802;50.198;19.796;2023-03-18T01:49:06;96296.52;;;0.37;58.10
52935;BME280;38802;50.198;19.796;2023-03-18T01:51:38;96297.19;;;0.33;58.00
52935;BME280;38802;50.198;19.796;2023-03-18T01:54:08;96298.17;;;0.30;57.76
52935;BME280;38802;50.198;19.796;2023-03-18T01:56:38;96294.80;;;0.29;58.26
52935;BME280;38802;50.198;19.796;2023-03-18T01:59:08;96291.64;;;0.27;57.68
52935;BME280;38802;50.198;19.796;2023-03-18T02:01:43;96292.91;;;0.25;57.93
52935;BME280;38802;50.198;19.796;2023-03-18T02:04:15;96290.70;;;0.25;57.84
52935;BME280;38802;50.198;19.796;2023-03-18T02:06:44;96289.56;;;0.23;58.15
52935;BME280;38802;50.198;19.796;2023-03-18T02:09:12;96285.41;;;0.24;58.22
52935;BME280;38802;50.198;19.796;2023-03-18T02:11:44;96279.10;;;0.24;58.35
52935;BME280;38802;50.198;19.796;2023-03-18T02:14:20;96281.11;;;0.21;58.47
52935;BME280;38802;50.198;19.796;2023-03-18T02:16:54;96279.11;;;0.20;58.41
52935;BME280;38802;50.198;19.796;2023-03-18T02:19:32;96282.25;;;0.18;58.41
52935;BME280;38802;50.198;19.796;2023-03-18T02:22:17;96287.73;;;0.18;58.34
52935;BME280;38802;50.198;19.796;2023-03-18T02:25:10;96287.02;;;0.19;58.61
52935;BME280;38802;50.198;19.796;2023-03-18T02:28:06;96288.11;;;0.21;58.43
52935;BME280;38802;50.198;19.796;2023-03-18T02:30:43;96281.61;;;0.26;58.65
52935;BME280;38802;50.198;19.796;2023-03-18T02:33:14;96280.81;;;0.24;58.40
52935;BME280;38802;50.198;19.796;2023-03-18T02:35:44;96282.61;;;0.22;58.70
52935;BME280;38802;50.198;19.796;2023-03-18T02:38:14;96280.83;;;0.20;58.40
52935;BME280;38802;50.198;19.796;2023-03-18T02:40:42;96277.86;;;0.17;58.42
52935;BME280;38802;50.198;19.796;2023-03-18T02:43:28;96275.42;;;0.14;58.71
52935;BME280;38802;50.198;19.796;2023-03-18T02:46:10;96271.89;;;0.13;59.28
52935;BME280;38802;50.198;19.796;2023-03-18T02:48:43;96275.06;;;0.10;58.99
52935;BME280;38802;50.198;19.796;2023-03-18T02:51:14;96276.14;;;0.09;58.76
52935;BME280;38802;50.198;19.796;2023-03-18T02:53:43;96272.92;;;0.09;59.13
52935;BME280;38802;50.198;19.796;2023-03-18T02:56:12;96278.55;;;0.09;59.01
52935;BME280;38802;50.198;19.796;2023-03-18T02:58:41;96277.19;;;0.09;58.97
52935;BME280;38802;50.198;19.796;2023-03-18T03:01:10;96277.36;;;0.09;58.78
52935;BME280;38802;50.198;19.796;2023-03-18T03:03:38;96278.16;;;0.10;58.77
52935;BME280;38802;50.198;19.796;2023-03-18T03:06:08;96275.13;;;0.13;58.95
52935;BME280;38802;50.198;19.796;2023-03-18T03:08:38;96278.42;;;0.20;58.75
52935;BME280;38802;50.198;19.796;2023-03-18T03:11:07;96279.21;;;0.26;58.81
52935;BME280;38802;50.198;19.796;2023-03-18T03:13:38;96272.76;;;0.29;58.66
52935;BME280;38802;50.198;19.796;2023-03-18T03:16:08;96277.04;;;0.28;58.95
52935;BME280;38802;50.198;19.796;2023-03-18T03:18:37;96272.40;;;0.34;58.57
52935;BME280;38802;50.198;19.796;2023-03-18T03:21:05;96271.55;;;0.34;58.95
52935;BME280;38802;50.198;19.796;2023-03-18T03:23:36;96272.21;;;0.30;59.01
52935;BME280;38802;50.198;19.796;2023-03-18T03:26:05;96264.55;;;0.29;58.61
52935;BME280;38802;50.198;19.796;2023-03-18T03:28:33;96267.88;;;0.27;58.94
52935;BME280;38802;50.198;19.796;2023-03-18T03:31:02;96269.79;;;0.26;58.84
52935;BME280;38802;50.198;19.796;2023-03-18T03:33:31;96272.48;;;0.27;59.45
52935;BME280;38802;50.198;19.796;2023-03-18T03:35:59;96272.64;;;0.27;58.88
52935;BME280;38802;50.198;19.796;2023-03-18T03:38:28;96273.15;;;0.32;59.22
52935;BME280;38802;50.198;19.796;2023-03-18T03:40:56;96274.35;;;0.36;59.05
52935;BME280;38802;50.198;19.796;2023-03-18T03:43:24;96278.69;;;0.38;58.82
52935;BME280;38802;50.198;19.796;2023-03-18T03:45:52;96281.72;;;0.40;59.12
52935;BME280;38802;50.198;19.796;2023-03-18T03:48:20;96276.59;;;0.36;58.88
52935;BME280;38802;50.198;19.796;2023-03-18T03:50:49;96277.33;;;0.30;59.01
52935;BME280;38802;50.198;19.796;2023-03-18T03:53:19;96273.16;;;0.27;59.13
52935;BME280;38802;50.198;19.796;2023-03-18T03:55:47;96275.81;;;0.25;58.84
52935;BME280;38802;50.198;19.796;2023-03-18T03:58:16;96275.27;;;0.22;59.05
52935;BME280;38802;50.198;19.796;2023-03-18T04:00:44;96275.10;;;0.18;59.05
52935;BME280;38802;50.198;19.796;2023-03-18T04:03:12;96275.36;;;0.19;59.18
52935;BME280;38802;50.198;19.796;2023-03-18T04:05:40;96279.29;;;0.20;59.30
52935;BME280;38802;50.198;19.796;2023-03-18T04:08:10;96278.54;;;0.18;59.15
52935;BME280;38802;50.198;19.796;2023-03-18T04:10:38;96274.70;;;0.11;59.38
52935;BME280;38802;50.198;19.796;2023-03-18T04:13:09;96273.88;;;0.01;59.09
52935;BME280;38802;50.198;19.796;2023-03-18T04:15:39;96276.41;;;-0.07;59.14
52935;BME280;38802;50.198;19.796;2023-03-18T04:18:09;96280.79;;;-0.14;59.31
52935;BME280;38802;50.198;19.796;2023-03-18T04:20:38;96282.30;;;-0.17;59.34
52935;BME280;38802;50.198;19.796;2023-03-18T04:23:16;96284.23;;;-0.18;59.61
52935;BME280;38802;50.198;19.796;2023-03-18T04:25:45;96280.71;;;-0.20;59.13
52935;BME280;38802;50.198;19.796;2023-03-18T04:28:14;96287.84;;;-0.24;59.39
52935;BME280;38802;50.198;19.796;2023-03-18T04:30:43;96289.13;;;-0.25;59.42
52935;BME280;38802;50.198;19.796;2023-03-18T04:33:15;96287.67;;;-0.28;59.54
52935;BME280;38802;50.198;19.796;2023-03-18T04:35:43;96289.05;;;-0.33;59.65
52935;BME280;38802;50.198;19.796;2023-03-18T04:38:13;96293.26;;;-0.36;59.53
52935;BME280;38802;50.198;19.796;2023-03-18T04:40:41;96288.75;;;-0.38;59.78
52935;BME280;38802;50.198;19.796;2023-03-18T04:43:09;96293.13;;;-0.41;59.57
52935;BME280;38802;50.198;19.796;2023-03-18T04:45:39;96292.36;;;-0.44;59.55
52935;BME280;38802;50.198;19.796;2023-03-18T04:48:07;96289.36;;;-0.46;60.00
52935;BME280;38802;50.198;19.796;2023-03-18T04:50:38;96290.47;;;-0.48;59.70
52935;BME280;38802;50.198;19.796;2023-03-18T04:53:08;96291.16;;;-0.48;59.78
52935;BME280;38802;50.198;19.796;2023-03-18T04:55:38;96291.80;;;-0.47;59.67
52935;BME280;38802;50.198;19.796;2023-03-18T04:58:08;96296.95;;;-0.43;59.83
52935;BME280;38802;50.198;19.796;2023-03-18T05:00:39;96298.27;;;-0.38;59.93
52935;BME280;38802;50.198;19.796;2023-03-18T05:03:24;96300.43;;;-0.36;60.09
52935;BME280;38802;50.198;19.796;2023-03-18T05:05:53;96300.55;;;-0.39;59.92
52935;BME280;38802;50.198;19.796;2023-03-18T05:08:25;96302.36;;;-0.41;60.15
52935;BME280;38802;50.198;19.796;2023-03-18T05:10:54;96301.16;;;-0.41;60.23
52935;BME280;38802;50.198;19.796;2023-03-18T05:13:23;96304.21;;;-0.37;60.06
52935;BME280;38802;50.198;19.796;2023-03-18T05:15:52;96301.56;;;-0.30;60.20
52935;BME280;38802;50.198;19.796;2023-03-18T05:18:21;96299.84;;;-0.25;59.95
52935;BME280;38802;50.198;19.796;2023-03-18T05:20:50;96302.24;;;-0.16;60.03
52935;BME280;38802;50.198;19.796;2023-03-18T05:23:19;96304.92;;;-0.02;60.45
52935;BME280;38802;50.198;19.796;2023-03-18T05:25:51;96306.64;;;0.15;60.16
52935;BME280;38802;50.198;19.796;2023-03-18T05:28:20;96309.98;;;0.30;60.23
52935;BME280;38802;50.198;19.796;2023-03-18T05:31:05;96305.98;;;0.44;60.39
52935;BME280;38802;50.198;19.796;2023-03-18T05:33:35;96304.23;;;0.53;60.05
52935;BME280;38802;50.198;19.796;2023-03-18T05:36:05;96307.50;;;0.61;60.45
52935;BME280;38802;50.198;19.796;2023-03-18T05:38:37;96308.20;;;0.69;60.36
52935;BME280;38802;50.198;19.796;2023-03-18T05:41:05;96306.44;;;0.74;60.22
52935;BME280;38802;50.198;19.796;2023-03-18T05:43:37;96303.70;;;0.78;60.26
52935;BME280;38802;50.198;19.796;2023-03-18T05:46:05;96301.23;;;0.80;60.12
52935;BME280;38802;50.198;19.796;2023-03-18T05:48:53;96304.19;;;0.82;60.24
52935;BME280;38802;50.198;19.796;2023-03-18T05:51:22;96303.91;;;0.89;60.23
52935;BME280;38802;50.198;19.796;2023-03-18T05:53:51;96302.86;;;0.98;60.11
52935;BME280;38802;50.198;19.796;2023-03-18T05:56:31;96305.02;;;1.07;59.96
52935;BME280;38802;50.198;19.796;2023-03-18T05:59:01;96301.41;;;1.19;60.15
52935;BME280;38802;50.198;19.796;2023-03-18T06:01:40;96300.86;;;1.36;60.04
52935;BME280;38802;50.198;19.796;2023-03-18T06:04:09;96298.15;;;1.54;59.93
52935;BME280;38802;50.198;19.796;2023-03-18T06:06:38;96301.49;;;1.74;59.93
52935;BME280;38802;50.198;19.796;2023-03-18T06:09:08;96304.17;;;1.94;59.74
52935;BME280;38802;50.198;19.796;2023-03-18T06:11:36;96301.67;;;2.14;59.47
52935;BME280;38802;50.198;19.796;2023-03-18T06:14:06;96302.19;;;2.35;58.86
52935;BME280;38802;50.198;19.796;2023-03-18T06:16:35;96299.34;;;2.55;59.09
52935;BME280;38802;50.198;19.796;2023-03-18T06:19:04;96298.64;;;2.76;58.40
52935;BME280;38802;50.198;19.796;2023-03-18T06:21:33;96295.73;;;2.96;58.50
52935;BME280;38802;50.198;19.796;2023-03-18T06:24:01;96296.89;;;3.14;57.94
52935;BME280;38802;50.198;19.796;2023-03-18T06:26:31;96302.05;;;3.30;57.45
52935;BME280;38802;50.198;19.796;2023-03-18T06:29:00;96300.27;;;3.44;57.20
52935;BME280;38802;50.198;19.796;2023-03-18T06:31:28;96299.52;;;3.56;56.27
52935;BME280;38802;50.198;19.796;2023-03-18T06:33:56;96301.89;;;3.65;56.69
52935;BME280;38802;50.198;19.796;2023-03-18T06:36:29;96303.30;;;3.77;56.27
52935;BME280;38802;50.198;19.796;2023-03-18T06:38:58;96304.77;;;3.91;55.99
52935;BME280;38802;50.198;19.796;2023-03-18T06:41:26;96306.95;;;4.05;55.63
52935;BME280;38802;50.198;19.796;2023-03-18T06:44:05;96311.42;;;4.14;55.60
52935;BME280;38802;50.198;19.796;2023-03-18T06:46:34;96309.79;;;4.22;55.25
52935;BME280;38802;50.198;19.796;2023-03-18T06:49:04;96308.73;;;4.31;55.29
52935;BME280;38802;50.198;19.796;2023-03-18T06:51:34;96307.98;;;4.39;55.03
52935;BME280;38802;50.198;19.796;2023-03-18T06:54:03;96308.61;;;4.46;55.12
52935;BME280;38802;50.198;19.796;2023-03-18T06:56:32;96307.86;;;4.59;54.64
52935;BME280;38802;50.198;19.796;2023-03-18T06:59:11;96311.90;;;4.69;54.22
52935;BME280;38802;50.198;19.796;2023-03-18T07:01:40;96312.88;;;4.79;54.54
52935;BME280;38802;50.198;19.796;2023-03-18T07:04:09;96309.92;;;4.92;54.13
52935;BME280;38802;50.198;19.796;2023-03-18T07:06:38;96311.95;;;5.01;54.28
52935;BME280;38802;50.198;19.796;2023-03-18T07:09:06;96317.36;;;5.11;53.73
52935;BME280;38802;50.198;19.796;2023-03-18T07:11:37;96321.20;;;5.20;53.72
52935;BME280;38802;50.198;19.796;2023-03-18T07:14:09;96318.08;;;5.26;53.49
52935;BME280;38802;50.198;19.796;2023-03-18T07:16:38;96320.92;;;5.30;53.13
52935;BME280;38802;50.198;19.796;2023-03-18T07:19:06;96321.29;;;5.35;52.92
52935;BME280;38802;50.198;19.796;2023-03-18T07:21:34;96325.81;;;5.38;52.73
52935;BME280;38802;50.198;19.796;2023-03-18T07:24:03;96322.95;;;5.42;52.75
52935;BME280;38802;50.198;19.796;2023-03-18T07:26:32;96326.80;;;5.47;52.46
52935;BME280;38802;50.198;19.796;2023-03-18T07:29:00;96326.58;;;5.50;52.47
52935;BME280;38802;50.198;19.796;2023-03-18T07:31:28;96324.55;;;5.55;52.69
52935;BME280;38802;50.198;19.796;2023-03-18T07:33:57;96330.17;;;5.62;52.14
52935;BME280;38802;50.198;19.796;2023-03-18T07:36:26;96329.55;;;5.67;52.06
52935;BME280;38802;50.198;19.796;2023-03-18T07:38:54;96336.14;;;5.72;52.00
52935;BME280;38802;50.198;19.796;2023-03-18T07:41:23;96339.45;;;5.79;51.91
52935;BME280;38802;50.198;19.796;2023-03-18T07:43:51;96342.92;;;5.87;51.29
52935;BME280;38802;50.198;19.796;2023-03-18T07:46:20;96342.96;;;5.93;51.36
52935;BME280;38802;50.198;19.796;2023-03-18T07:48:49;96344.10;;;5.99;51.63
52935;BME280;38802;50.198;19.796;2023-03-18T07:51:17;96344.52;;;6.10;51.32
52935;BME280;38802;50.198;19.796;2023-03-18T07:53:45;96346.80;;;6.20;51.39
52935;BME280;38802;50.198;19.796;2023-03-18T07:56:14;96351.69;;;6.30;50.89
52935;BME280;38802;50.198;19.796;2023-03-18T07:58:42;96351.27;;;6.36;50.67
52935;BME280;38802;50.198;19.796;2023-03-18T08:01:11;96349.77;;;6.41;50.57
52935;BME280;38802;50.198;19.796;2023-03-18T08:03:43;96347.42;;;6.48;50.90
52935;BME280;38802;50.198;19.796;2023-03-18T08:06:13;96345.45;;;6.57;50.64
52935;BME280;38802;50.198;19.796;2023-03-18T08:08:42;96349.21;;;6.60;50.65
52935;BME280;38802;50.198;19.796;2023-03-18T08:11:10;96347.97;;;6.61;50.54
52935;BME280;38802;50.198;19.796;2023-03-18T08:13:38;96350.91;;;6.64;50.04
52935;BME280;38802;50.198;19.796;2023-03-18T08:16:07;96354.51;;;6.67;50.11
52935;BME280;38802;50.198;19.796;2023-03-18T08:18:35;96354.63;;;6.75;49.83
52935;BME280;38802;50.198;19.796;2023-03-18T08:21:03;96355.72;;;6.82;49.61
52935;BME280;38802;50.198;19.796;2023-03-18T08:23:32;96354.80;;;6.88;49.28
52935;BME280;38802;50.198;19.796;2023-03-18T08:26:00;96358.27;;;6.94;49.64
52935;BME280;38802;50.198;19.796;2023-03-18T08:28:29;96358.04;;;7.02;49.60
52935;BME280;38802;50.198;19.796;2023-03-18T08:30:57;96354.34;;;7.09;49.04
52935;BME280;38802;50.198;19.796;2023-03-18T08:33:26;96354.48;;;7.14;49.32
52935;BME280;38802;50.198;19.796;2023-03-18T08:35:55;96354.69;;;7.24;49.47
52935;BME280;38802;50.198;19.796;2023-03-18T08:38:24;96353.19;;;7.36;49.75
52935;BME280;38802;50.198;19.796;2023-03-18T08:40:52;96355.17;;;7.50;49.95
52935;BME280;38802;50.198;19.796;2023-03-18T08:43:21;96353.67;;;7.60;49.95
52935;BME280;38802;50.198;19.796;2023-03-18T08:45:52;96350.95;;;7.72;49.95
52935;BME280;38802;50.198;19.796;2023-03-18T08:48:22;96349.77;;;7.83;49.67
52935;BME280;38802;50.198;19.796;2023-03-18T08:50:50;96350.25;;;7.92;49.45
52935;BME280;38802;50.198;19.796;2023-03-18T08:53:19;96353.88;;;8.06;49.57
52935;BME280;38802;50.198;19.796;2023-03-18T08:55:47;96351.63;;;8.18;49.16
52935;BME280;38802;50.198;19.796;2023-03-18T08:58:15;96352.05;;;8.27;48.96
52935;BME280;38802;50.198;19.796;2023-03-18T09:00:45;96353.90;;;8.41;47.49
52935;BME280;38802;50.198;19.796;2023-03-18T09:03:13;96351.23;;;8.49;47.25
52935;BME280;38802;50.198;19.796;2023-03-18T09:05:47;96350.68;;;8.54;47.72
52935;BME280;38802;50.198;19.796;2023-03-18T09:08:15;96349.58;;;8.62;47.69
52935;BME280;38802;50.198;19.796;2023-03-18T09:10:45;96350.24;;;8.70;46.94
52935;BME280;38802;50.198;19.796;2023-03-18T09:13:13;96349.95;;;8.76;47.29
52935;BME280;38802;50.198;19.796;2023-03-18T09:15:41;96346.07;;;8.87;47.86
52935;BME280;38802;50.198;19.796;2023-03-18T09:18:09;96349.09;;;8.95;47.17
52935;BME280;38802;50.198;19.796;2023-03-18T09:20:40;96352.21;;;9.04;46.63
52935;BME280;38802;50.198;19.796;2023-03-18T09:23:09;96349.41;;;9.11;46.33
52935;BME280;38802;50.198;19.796;2023-03-18T09:25:39;96352.79;;;9.13;45.50
52935;BME280;38802;50.198;19.796;2023-03-18T09:28:09;96355.33;;;9.11;45.79
52935;BME280;38802;50.198;19.796;2023-03-18T09:30:37;96351.55;;;9.16;46.63
52935;BME280;38802;50.198;19.796;2023-03-18T09:33:06;96349.29;;;9.25;46.40
52935;BME280;38802;50.198;19.796;2023-03-18T09:35:36;96350.52;;;9.25;45.32
52935;BME280;38802;50.198;19.796;2023-03-18T09:38:05;96348.98;;;9.18;45.09
52935;BME280;38802;50.198;19.796;2023-03-18T09:40:36;96349.31;;;9.18;45.35
52935;BME280;38802;50.198;19.796;2023-03-18T09:43:20;96351.42;;;9.19;45.74
52935;BME280;38802;50.198;19.796;2023-03-18T09:46:20;96351.60;;;9.22;45.62
52935;BME280;38802;50.198;19.796;2023-03-18T09:51:43;96355.08;;;9.35;45.50
52935;BME280;38802;50.198;19.796;2023-03-18T09:54:31;96351.80;;;9.37;44.90
52935;BME280;38802;50.198;19.796;2023-03-18T09:57:02;96351.64;;;9.37;45.13
52935;BME280;38802;50.198;19.796;2023-03-18T09:59:43;96351.80;;;9.37;44.45
52935;BME280;38802;50.198;19.796;2023-03-18T10:02:23;96352.19;;;9.35;44.94
52935;BME280;38802;50.198;19.796;2023-03-18T10:04:56;96349.09;;;9.39;44.87
52935;BME280;38802;50.198;19.796;2023-03-18T10:07:30;96348.79;;;9.45;44.67
52935;BME280;38802;50.198;19.796;2023-03-18T10:10:05;96349.70;;;9.51;44.41
52935;BME280;38802;50.198;19.796;2023-03-18T10:12:38;96346.41;;;9.58;44.24
52935;BME280;38802;50.198;19.796;2023-03-18T10:15:18;96344.58;;;9.55;43.89
52935;BME280;38802;50.198;19.796;2023-03-18T10:17:55;96345.08;;;9.50;44.26
52935;BME280;38802;50.198;19.796;2023-03-18T10:20:35;96343.40;;;9.50;43.34
52935;BME280;38802;50.198;19.796;2023-03-18T10:25:55;96337.98;;;9.52;43.57
52935;BME280;38802;50.198;19.796;2023-03-18T10:34:21;96334.27;;;9.65;43.89
52935;BME280;38802;50.198;19.796;2023-03-18T10:39:43;96326.94;;;9.76;42.92
52935;BME280;38802;50.198;19.796;2023-03-18T10:42:24;96328.95;;;9.80;43.17
52935;BME280;38802;50.198;19.796;2023-03-18T10:44:57;96326.86;;;9.82;43.31
52935;BME280;38802;50.198;19.796;2023-03-18T10:47:33;96323.92;;;9.91;43.01
52935;BME280;38802;50.198;19.796;2023-03-18T10:50:25;96328.05;;;10.00;43.08
52935;BME280;38802;50.198;19.796;2023-03-18T10:53:13;96322.24;;;10.01;41.42
52935;BME280;38802;50.198;19.796;2023-03-18T10:56:04;96323.75;;;10.02;42.02
52935;BME280;38802;50.198;19.796;2023-03-18T10:58:33;96323.95;;;10.08;42.37
52935;BME280;38802;50.198;19.796;2023-03-18T11:01:05;96322.00;;;10.15;42.47
52935;BME280;38802;50.198;19.796;2023-03-18T11:03:40;96321.70;;;10.22;41.84
52935;BME280;38802;50.198;19.796;2023-03-18T11:06:16;96321.30;;;10.25;41.68
52935;BME280;38802;50.198;19.796;2023-03-18T11:08:47;96317.63;;;10.31;42.21
52935;BME280;38802;50.198;19.796;2023-03-18T11:11:19;96316.71;;;10.38;42.05
52935;BME280;38802;50.198;19.796;2023-03-18T11:13:50;96314.09;;;10.43;41.35
52935;BME280;38802;50.198;19.796;2023-03-18T11:16:30;96318.26;;;10.45;40.93
52935;BME280;38802;50.198;19.796;2023-03-18T11:19:07;96313.26;;;10.45;40.92
52935;BME280;38802;50.198;19.796;2023-03-18T11:21:42;96310.21;;;10.48;40.50
52935;BME280;38802;50.198;19.796;2023-03-18T11:24:24;96306.82;;;10.49;39.63
52935;BME280;38802;50.198;19.796;2023-03-18T11:27:20;96308.16;;;10.48;39.24
52935;BME280;38802;50.198;19.796;2023-03-18T11:29:57;96307.27;;;10.48;39.20
52935;BME280;38802;50.198;19.796;2023-03-18T11:32:31;96304.73;;;10.47;39.06
52935;BME280;38802;50.198;19.796;2023-03-18T11:35:03;96303.98;;;10.48;38.75
52935;BME280;38802;50.198;19.796;2023-03-18T11:43:02;96302.36;;;10.70;39.08
52935;BME280;38802;50.198;19.796;2023-03-18T11:48:40;96292.09;;;10.74;38.54
52935;BME280;38802;50.198;19.796;2023-03-18T12:03:00;96281.30;;;11.02;36.86
52935;BME280;38802;50.198;19.796;2023-03-18T12:05:48;96278.21;;;11.03;37.96
52935;BME280;38802;50.198;19.796;2023-03-18T12:08:25;96271.59;;;11.12;36.39
52935;BME280;38802;50.198;19.796;2023-03-18T12:11:10;96270.77;;;11.13;37.27
52935;BME280;38802;50.198;19.796;2023-03-18T12:16:50;96268.77;;;11.18;37.05
52935;BME280;38802;50.198;19.796;2023-03-18T12:30:54;96264.77;;;11.22;37.42
52935;BME280;38802;50.198;19.796;2023-03-18T12:42:14;96257.35;;;11.37;36.09
52935;BME280;38802;50.198;19.796;2023-03-18T12:45:09;96257.33;;;11.37;36.91
52935;BME280;38802;50.198;19.796;2023-03-18T12:47:49;96259.90;;;11.41;36.69
52935;BME280;38802;50.198;19.796;2023-03-18T12:50:25;96258.83;;;11.42;36.16
52935;BME280;38802;50.198;19.796;2023-03-18T12:52:58;96256.23;;;11.39;36.26
52935;BME280;38802;50.198;19.796;2023-03-18T12:55:35;96256.48;;;11.40;36.36
52935;BME280;38802;50.198;19.796;2023-03-18T13:05:54;96250.93;;;11.44;37.20
52935;BME280;38802;50.198;19.796;2023-03-18T13:17:16;96251.15;;;11.58;37.43
52935;BME280;38802;50.198;19.796;2023-03-18T13:19:47;96242.85;;;11.59;36.86
52935;BME280;38802;50.198;19.796;2023-03-18T13:25:43;96239.71;;;11.57;37.25
52935;BME280;38802;50.198;19.796;2023-03-18T13:28:48;96232.77;;;11.57;37.04
52935;BME280;38802;50.198;19.796;2023-03-18T13:36:51;96230.93;;;11.60;37.51
52935;BME280;38802;50.198;19.796;2023-03-18T13:39:33;96229.61;;;11.61;37.20
52935;BME280;38802;50.198;19.796;2023-03-18T13:47:34;96226.70;;;11.61;37.17
52935;BME280;38802;50.198;19.796;2023-03-18T13:52:48;96224.36;;;11.58;36.69
52935;BME280;38802;50.198;19.796;2023-03-18T13:55:32;96225.10;;;11.61;36.63
52935;BME280;38802;50.198;19.796;2023-03-18T14:00:40;96220.20;;;11.61;36.49
52935;BME280;38802;50.198;19.796;2023-03-18T14:17:52;96202.98;;;11.72;36.27
52935;BME280;38802;50.198;19.796;2023-03-18T14:20:23;96201.67;;;11.71;36.12
52935;BME280;38802;50.198;19.796;2023-03-18T14:22:53;96200.00;;;11.74;35.97
52935;BME280;38802;50.198;19.796;2023-03-18T14:36:00;96191.63;;;11.66;35.53
52935;BME280;38802;50.198;19.796;2023-03-18T14:38:41;96189.31;;;11.68;36.11
52935;BME280;38802;50.198;19.796;2023-03-18T14:41:16;96186.10;;;11.70;35.74
52935;BME280;38802;50.198;19.796;2023-03-18T14:43:53;96184.84;;;11.66;35.72
52935;BME280;38802;50.198;19.796;2023-03-18T14:46:26;96184.06;;;11.63;36.21
52935;BME280;38802;50.198;19.796;2023-03-18T14:48:57;96184.95;;;11.64;35.96
52935;BME280;38802;50.198;19.796;2023-03-18T14:51:26;96187.53;;;11.65;35.69
52935;BME280;38802;50.198;19.796;2023-03-18T14:54:02;96187.30;;;11.59;35.95
52935;BME280;38802;50.198;19.796;2023-03-18T14:56:41;96187.32;;;11.56;36.15
52935;BME280;38802;50.198;19.796;2023-03-18T14:59:13;96190.47;;;11.52;35.97
52935;BME280;38802;50.198;19.796;2023-03-18T15:01:45;96191.53;;;11.47;36.28
52935;BME280;38802;50.198;19.796;2023-03-18T15:04:20;96193.36;;;11.46;36.84
52935;BME280;38802;50.198;19.796;2023-03-18T15:06:49;96192.05;;;11.45;36.70
52935;BME280;38802;50.198;19.796;2023-03-18T15:09:19;96196.30;;;11.42;36.97
52935;BME280;38802;50.198;19.796;2023-03-18T15:11:48;96197.06;;;11.42;36.79
52935;BME280;38802;50.198;19.796;2023-03-18T15:14:31;96192.77;;;11.37;37.07
52935;BME280;38802;50.198;19.796;2023-03-18T15:17:04;96192.17;;;11.34;36.81
52935;BME280;38802;50.198;19.796;2023-03-18T15:19:37;96193.86;;;11.28;37.60
52935;BME280;38802;50.198;19.796;2023-03-18T15:22:05;96191.27;;;11.28;37.20